createdAt,value
2023-02-27T00:03:43.151Z,0.57
2023-02-27T00:07:43.329Z,0.57
2023-02-27T00:11:43.284Z,0.58
2023-02-27T00:15:43.530Z,0.58
2023-02-27T00:19:43.547Z,0.58
2023-02-27T00:23:43.570Z,0.58
2023-02-27T00:27:43.749Z,0.58
2023-02-27T00:31:44.623Z,0.58
2023-02-27T00:35:42.994Z,213.89
2023-02-27T00:39:43.173Z,0.58
2023-02-27T00:43:43.332Z,0.58
2023-02-27T00:47:44.020Z,0.58
2023-02-27T00:51:43.002Z,213.89
2023-02-27T00:55:43.102Z,0.57
2023-02-27T00:59:43.110Z,0.57
2023-02-27T01:03:44.227Z,0.57
2023-02-27T01:07:42.672Z,205.77
2023-02-27T01:11:43.228Z,205.77
2023-02-27T01:15:43.183Z,205.77
2023-02-27T01:19:43.127Z,201.79
2023-02-27T01:23:43.317Z,201.79
2023-02-27T01:27:43.185Z,201.79
2023-02-27T01:31:44.045Z,0.55
2023-02-27T01:35:43.486Z,0.55
2023-02-27T01:39:43.446Z,0.55
2023-02-27T01:43:43.409Z,0.55
2023-02-27T01:47:43.516Z,0.55
2023-02-27T01:51:43.231Z,0.55
2023-02-27T01:55:43.566Z,0.55
2023-02-27T01:59:43.396Z,0.55
2023-02-27T02:03:43.334Z,0.55
2023-02-27T02:07:43.234Z,0.55
2023-02-27T02:11:43.172Z,0.55
2023-02-27T02:15:43.340Z,0.55
2023-02-27T02:19:43.072Z,0.55
2023-02-27T02:23:43.002Z,0.55
2023-02-27T02:27:44.038Z,0.55
2023-02-27T02:31:45.271Z,0.55
2023-02-27T02:35:43.788Z,0.55
2023-02-27T02:39:42.678Z,0.55
2023-02-27T02:43:43.752Z,5.25
2023-02-27T02:47:43.748Z,5.25
2023-02-27T02:51:43.599Z,1290.79
2023-02-27T02:55:43.436Z,1290.79
2023-02-27T02:59:43.679Z,1290.79
2023-02-27T03:03:43.467Z,1290.79
2023-02-27T03:07:43.968Z,1290.79
2023-02-27T03:11:43.629Z,1290.79
2023-02-27T03:15:43.542Z,1290.79
2023-02-27T03:19:43.405Z,1290.79
2023-02-27T03:23:43.449Z,1290.79
2023-02-27T03:27:43.571Z,1290.79
2023-02-27T03:31:45.099Z,1290.79
2023-02-27T03:35:43.307Z,1290.79
2023-02-27T03:39:42.941Z,1290.79
2023-02-27T03:43:43.157Z,1290.79
2023-02-27T03:47:43.512Z,1290.79
2023-02-27T03:51:43.344Z,1290.79
2023-02-27T03:55:43.677Z,3197.27
2023-02-27T03:59:42.698Z,3197.27
2023-02-27T04:03:43.839Z,4.25
2023-02-27T04:07:43.502Z,4.25
2023-02-27T04:11:43.634Z,4.25
2023-02-27T04:15:43.710Z,4.25
2023-02-27T04:19:43.895Z,4.25
2023-02-27T04:23:43.670Z,4.25
2023-02-27T04:27:43.487Z,4.25
2023-02-27T04:31:44.460Z,4.25
2023-02-27T04:35:43.424Z,4.25
2023-02-27T04:39:43.689Z,4.25
2023-02-27T04:43:43.469Z,4.25
2023-02-27T04:47:43.661Z,4.25
2023-02-27T04:51:45.264Z,4.25
2023-02-27T04:55:42.922Z,4.25
2023-02-27T04:59:44.245Z,4.25
2023-02-27T05:03:43.979Z,4.25
2023-02-27T05:07:43.636Z,4.25
2023-02-27T05:11:43.485Z,4.25
2023-02-27T05:15:43.998Z,4.25
2023-02-27T05:19:42.907Z,4.25
2023-02-27T05:23:43.007Z,4.25
2023-02-27T05:27:43.230Z,4.25
2023-02-27T05:31:43.516Z,4.25
2023-02-27T05:35:43.400Z,4.25
2023-02-27T05:39:43.432Z,4.25
2023-02-27T05:43:43.740Z,4.25
2023-02-27T05:47:43.822Z,4.25
2023-02-27T05:51:44.168Z,4.25
2023-02-27T05:55:43.757Z,4.25
2023-02-27T05:59:44.261Z,4.25
2023-02-27T06:03:44.079Z,4.25
2023-02-27T06:07:43.583Z,4.25
2023-02-27T06:11:43.493Z,4.25
2023-02-27T06:15:43.653Z,4.25
2023-02-27T06:19:43.874Z,4.25
2023-02-27T06:23:42.770Z,4.25
2023-02-27T06:27:43.058Z,4.25
2023-02-27T06:31:43.497Z,4.25
2023-02-27T06:35:43.364Z,4.25
2023-02-27T06:39:43.117Z,4.25
2023-02-27T06:43:43.189Z,4.25
2023-02-27T06:47:43.499Z,4.25
2023-02-27T06:51:45.066Z,4.25
2023-02-27T06:55:43.279Z,4.25
2023-02-27T06:59:44.672Z,4.25
2023-02-27T07:03:43.926Z,4.25
2023-02-27T07:09:18.319Z,4.25
2023-02-27T07:11:42.866Z,4.25
2023-02-27T07:15:42.980Z,4.25
2023-02-27T07:19:43.075Z,4.25
2023-02-27T07:23:43.572Z,4.25
2023-02-27T07:27:43.733Z,4.25
2023-02-27T07:31:44.211Z,4.25
2023-02-27T07:35:43.582Z,4.25
2023-02-27T07:39:43.747Z,4.25
2023-02-27T07:43:43.502Z,4.25
2023-02-27T07:47:43.262Z,4.25
2023-02-27T07:51:42.881Z,4.25
2023-02-27T07:55:43.449Z,4.25
2023-02-27T07:59:42.880Z,4.25
2023-02-27T08:03:43.087Z,4.25
2023-02-27T08:07:45.162Z,4.25
2023-02-27T08:11:42.845Z,4.25
2023-02-27T08:15:44.428Z,4.25
2023-02-27T08:19:43.240Z,4.25
2023-02-27T08:23:43.465Z,4.25
2023-02-27T08:27:43.716Z,4.25
2023-02-27T08:31:44.931Z,4.25
2023-02-27T08:35:53.828Z,4.25
2023-02-27T08:39:45.339Z,4.25
2023-02-27T08:43:45.883Z,4.25
2023-02-27T08:47:43.329Z,4.25
2023-02-27T08:51:43.587Z,4.25
2023-02-27T08:55:43.540Z,4.25
2023-02-27T08:59:43.860Z,4.25
2023-02-27T09:03:43.099Z,4.25
2023-02-27T09:07:45.389Z,4.25
2023-02-27T09:11:43.117Z,4.25
2023-02-27T09:15:43.228Z,4.25
2023-02-27T09:19:43.452Z,4.25
2023-02-27T09:23:43.507Z,4.25
2023-02-27T09:28:00.499Z,4.25
2023-02-27T09:31:45.307Z,4.25
2023-02-27T09:35:43.932Z,4.25
2023-02-27T09:39:44.001Z,4.25
2023-02-27T09:43:43.475Z,4.25
2023-02-27T09:47:43.329Z,4.25
2023-02-27T09:51:43.713Z,4.25
2023-02-27T09:55:43.561Z,4.25
2023-02-27T09:59:43.453Z,4.25
2023-02-27T10:03:43.787Z,4.25
2023-02-27T10:07:43.205Z,4.25
2023-02-27T10:11:43.238Z,42.91
2023-02-27T10:15:42.990Z,42.91
2023-02-27T10:20:02.819Z,10.99
2023-02-27T10:23:43.278Z,4.49
2023-02-27T10:27:43.670Z,4.49
2023-02-27T10:31:55.504Z,2.67
2023-02-27T10:35:43.667Z,732.85
2023-02-27T10:39:43.652Z,732.85
2023-02-27T10:43:43.582Z,1.6
2023-02-27T10:47:43.504Z,506.27
2023-02-27T10:51:42.892Z,506.27
2023-02-27T10:55:42.919Z,1.18
2023-02-27T10:59:43.119Z,1.03
2023-02-27T11:03:42.897Z,1.03
2023-02-27T11:07:43.266Z,344.82
2023-02-27T11:11:43.243Z,312.11
2023-02-27T11:15:43.947Z,312.11
2023-02-27T11:19:43.527Z,296.56
2023-02-27T11:23:43.842Z,0.79
2023-02-27T11:27:42.969Z,0.79
2023-02-27T11:31:43.508Z,0.77
2023-02-27T11:35:43.378Z,271.81
2023-02-27T11:39:43.670Z,271.81
2023-02-27T11:43:43.654Z,271.81
2023-02-27T11:48:31.416Z,271.81
2023-02-27T11:51:44.196Z,271.81
2023-02-27T11:55:43.845Z,253.01
2023-02-27T11:59:43.811Z,253.01
2023-02-27T12:03:47.326Z,253.01
2023-02-27T12:07:44.082Z,0.67
2023-02-27T12:11:59.148Z,0.66
2023-02-27T12:15:45.993Z,0.66
2023-02-27T12:19:43.676Z,243.95
2023-02-27T12:23:43.427Z,0.66
2023-02-27T12:27:43.863Z,0.66
2023-02-27T12:31:43.818Z,235.1
2023-02-27T12:35:43.737Z,0.65
2023-02-27T12:39:43.440Z,0.65
2023-02-27T12:43:44.986Z,0.66
2023-02-27T12:47:43.439Z,0.65
2023-02-27T12:51:43.700Z,0.65
2023-02-27T12:55:43.409Z,235.1
2023-02-27T12:59:43.673Z,0.65
2023-02-27T13:03:43.650Z,0.65
2023-02-27T13:07:45.014Z,239.5
2023-02-27T13:11:43.688Z,239.5
2023-02-27T13:15:43.736Z,239.5
2023-02-27T13:19:43.780Z,235.1
2023-02-27T13:23:42.880Z,230.75
2023-02-27T13:27:43.359Z,230.75
2023-02-27T13:31:43.367Z,0.62
2023-02-27T13:35:43.658Z,0.61
2023-02-27T13:39:43.585Z,0.61
2023-02-27T13:43:52.359Z,226.46
2023-02-27T13:47:44.046Z,222.22
2023-02-27T13:51:43.479Z,222.22
2023-02-27T13:55:56.611Z,222.22
2023-02-27T13:59:43.487Z,0.6
2023-02-27T14:03:56.199Z,0.6
2023-02-27T14:07:42.897Z,226.46
2023-02-27T14:11:43.589Z,0.6
2023-02-27T14:15:43.467Z,0.6
2023-02-27T14:20:04.731Z,0.59
2023-02-27T14:23:43.274Z,0.59
2023-02-27T14:27:43.550Z,0.59
2023-02-27T14:31:44.149Z,0.59
2023-02-27T14:35:43.450Z,0.59
2023-02-27T14:39:43.734Z,0.59
2023-02-27T14:43:44.031Z,0.59
2023-02-27T14:47:43.186Z,0.59
2023-02-27T14:51:42.809Z,0.59
2023-02-27T14:55:43.259Z,0.56
2023-02-27T14:59:55.183Z,201.79
2023-02-27T15:03:45.099Z,0.56
2023-02-27T15:07:43.230Z,0.56
2023-02-27T15:11:57.579Z,213.89
2023-02-27T15:15:43.955Z,0.57
2023-02-27T15:19:43.135Z,0.57
2023-02-27T15:23:58.239Z,205.77
2023-02-27T15:27:43.220Z,205.77
2023-02-27T15:31:44.206Z,205.77
2023-02-27T15:35:43.784Z,0.55
2023-02-27T15:39:45.243Z,0.55
2023-02-27T15:43:43.680Z,193.97
2023-02-27T15:47:44.117Z,193.97
2023-02-27T15:51:43.727Z,193.97
2023-02-27T15:55:43.408Z,193.97
2023-02-27T15:59:46.419Z,0.52
2023-02-27T16:03:43.835Z,0.52
2023-02-27T16:07:43.669Z,0.51
2023-02-27T16:11:43.497Z,190.14
2023-02-27T16:15:45.410Z,190.14
2023-02-27T16:19:43.758Z,190.14
2023-02-27T16:23:43.341Z,0.5
2023-02-27T16:27:43.543Z,0.5
2023-02-27T16:31:43.796Z,0.5
2023-02-27T16:35:53.952Z,182.61
2023-02-27T16:39:43.491Z,182.61
2023-02-27T16:43:44.967Z,0.49
2023-02-27T16:47:43.102Z,0.49
2023-02-27T16:51:43.347Z,0.49
2023-02-27T16:55:45.087Z,0.49
2023-02-27T16:59:42.994Z,178.92
2023-02-27T17:03:42.952Z,178.92
2023-02-27T17:07:43.359Z,0.47
2023-02-27T17:11:43.602Z,0.45
2023-02-27T17:15:43.684Z,0.45
2023-02-27T17:19:43.536Z,0.44
2023-02-27T17:23:43.445Z,0.41
2023-02-27T17:27:43.695Z,0.41
2023-02-27T17:31:43.968Z,0.41
2023-02-27T17:35:43.645Z,0.41
2023-02-27T17:39:43.594Z,0.41
2023-02-27T17:43:43.364Z,120.42
2023-02-27T17:47:43.936Z,120.42
2023-02-27T17:51:43.543Z,120.42
2023-02-27T17:55:43.251Z,109.34
2023-02-27T17:59:43.168Z,106.67
2023-02-27T18:03:43.880Z,0.29
2023-02-27T18:07:44.141Z,0.29
2023-02-27T18:11:43.687Z,0.29
2023-02-27T18:15:43.578Z,109.34
2023-02-27T18:19:43.943Z,109.34
2023-02-27T18:23:43.323Z,109.34
2023-02-27T18:27:59.280Z,0.3
2023-02-27T18:31:43.597Z,0.3
2023-02-27T18:35:43.427Z,0.31
2023-02-27T18:39:43.158Z,117.59
2023-02-27T18:43:43.668Z,117.59
2023-02-27T18:47:44.101Z,120.42
2023-02-27T18:51:43.891Z,123.29
2023-02-27T18:55:43.466Z,123.29
2023-02-27T18:59:43.738Z,0.34
2023-02-27T19:03:44.092Z,0.34
2023-02-27T19:07:43.195Z,0.36
2023-02-27T19:11:43.435Z,0.36
2023-02-27T19:15:43.581Z,132.17
2023-02-27T19:19:43.418Z,0.37
2023-02-27T19:23:43.666Z,0.37
2023-02-27T19:27:42.898Z,138.31
2023-02-27T19:31:43.476Z,0.38
2023-02-27T19:35:43.703Z,0.38
2023-02-27T19:39:43.180Z,0.38
2023-02-27T19:43:43.215Z,0.38
2023-02-27T19:47:44.043Z,0.38
2023-02-27T19:51:43.719Z,0.42
2023-02-27T19:55:42.858Z,0.43
2023-02-27T19:59:42.932Z,0.43
2023-02-27T20:03:43.763Z,0.44
2023-02-27T20:07:42.853Z,0.45
2023-02-27T20:11:43.443Z,0.45
2023-02-27T20:15:43.240Z,0.46
2023-02-27T20:19:43.671Z,0.48
2023-02-27T20:23:43.770Z,0.48
2023-02-27T20:27:44.469Z,0.49
2023-02-27T20:31:44.231Z,182.61
2023-02-27T20:35:43.390Z,182.61
2023-02-27T20:39:43.605Z,0.5
2023-02-27T20:43:42.581Z,190.14
2023-02-27T20:47:45.863Z,190.14
2023-02-27T20:51:43.206Z,0.52
2023-02-27T20:55:43.320Z,190.14
2023-02-27T20:59:43.219Z,190.14
2023-02-27T21:03:50.304Z,0.52
2023-02-27T21:07:43.106Z,0.52
2023-02-27T21:11:43.330Z,0.52
2023-02-27T21:15:43.167Z,193.97
2023-02-27T21:19:43.357Z,0.52
2023-02-27T21:23:43.118Z,0.52
2023-02-27T21:27:43.258Z,193.97
2023-02-27T21:31:44.648Z,0.53
2023-02-27T21:35:43.503Z,0.53
2023-02-27T21:39:43.437Z,0.55
2023-02-27T21:43:42.924Z,0.55
2023-02-27T21:47:43.072Z,0.55
2023-02-27T21:52:01.646Z,201.79
2023-02-27T21:55:43.144Z,201.79
2023-02-27T21:59:45.727Z,201.79
2023-02-27T22:03:43.774Z,201.79
2023-02-27T22:07:45.411Z,201.79
2023-02-27T22:11:42.955Z,201.79
2023-02-27T22:15:43.022Z,201.79
2023-02-27T22:19:43.087Z,201.79
2023-02-27T22:23:43.114Z,201.79
2023-02-27T22:27:43.402Z,201.79
2023-02-27T22:31:45.505Z,201.79
2023-02-27T22:35:43.870Z,201.79
2023-02-27T22:39:43.260Z,201.79
2023-02-27T22:43:43.272Z,201.79
2023-02-27T22:47:43.776Z,201.79
2023-02-27T22:51:43.797Z,201.79
2023-02-27T22:55:43.691Z,201.79
2023-02-27T22:59:43.639Z,1980.06
2023-02-27T23:03:43.811Z,1980.06
2023-02-27T23:07:43.640Z,1980.06
2023-02-27T23:11:43.377Z,1980.06
2023-02-27T23:15:43.462Z,1980.06
2023-02-27T23:19:43.101Z,1980.06
2023-02-27T23:23:43.590Z,1980.06
2023-02-27T23:27:59.806Z,1980.06
2023-02-27T23:31:46.818Z,1980.06
2023-02-27T23:35:57.261Z,1980.06
2023-02-27T23:39:44.474Z,1980.06
2023-02-27T23:43:43.089Z,1980.06
2023-02-27T23:47:43.514Z,1980.06
2023-02-27T23:51:44.561Z,1980.06
2023-02-27T23:55:43.699Z,1980.06
2023-02-27T23:59:44.141Z,1980.06
